createdAt,value
2018-05-14T00:01:15.929Z,32.30
2018-05-14T00:03:44.775Z,29.43
2018-05-14T00:06:13.559Z,26.27
2018-05-14T00:08:43.038Z,23.87
2018-05-14T00:11:12.001Z,23.97
2018-05-14T00:13:41.750Z,23.80
2018-05-14T00:16:10.846Z,22.93
2018-05-14T00:18:39.769Z,22.77
2018-05-14T00:21:08.559Z,26.17
2018-05-14T00:23:37.464Z,24.33
2018-05-14T00:26:06.263Z,23.00
2018-05-14T00:28:35.175Z,24.50
2018-05-14T00:31:04.301Z,26.10
2018-05-14T00:33:33.191Z,26.33
2018-05-14T00:36:02.066Z,25.77
2018-05-14T00:38:30.962Z,26.27
2018-05-14T00:40:59.876Z,25.00
2018-05-14T00:43:28.842Z,22.83
2018-05-14T00:45:58.194Z,25.03
2018-05-14T00:48:27.055Z,19.73
2018-05-14T00:50:56.443Z,20.57
2018-05-14T00:53:25.290Z,21.27
2018-05-14T00:55:54.120Z,21.60
2018-05-14T00:58:22.951Z,22.03
2018-05-14T01:00:51.800Z,23.80
2018-05-14T01:03:20.662Z,24.77
2018-05-14T01:05:49.479Z,21.93
2018-05-14T01:08:20.649Z,24.83
2018-05-14T01:10:49.518Z,25.53
2018-05-14T01:13:18.329Z,25.80
2018-05-14T01:15:47.628Z,21.23
2018-05-14T01:18:16.454Z,24.23
2018-05-14T01:20:45.315Z,21.10
2018-05-14T01:23:14.160Z,21.00
2018-05-14T01:25:42.986Z,20.47
2018-05-14T01:28:11.943Z,21.90
2018-05-14T01:30:40.681Z,22.87
2018-05-14T01:33:09.522Z,22.20
2018-05-14T01:35:38.349Z,21.30
2018-05-14T01:38:07.155Z,19.27
2018-05-14T01:40:35.948Z,16.93
2018-05-14T01:43:05.418Z,18.90
2018-05-14T01:45:34.314Z,19.67
2018-05-14T01:48:03.199Z,16.60
2018-05-14T01:50:32.092Z,16.80
2018-05-14T01:53:00.881Z,10.83
2018-05-14T01:55:29.791Z,12.27
2018-05-14T01:57:58.618Z,11.33
2018-05-14T02:00:27.411Z,9.90
2018-05-14T02:02:56.234Z,10.40
2018-05-14T02:05:25.134Z,9.50
2018-05-14T02:07:56.282Z,8.60
2018-05-14T02:10:25.108Z,9.53
2018-05-14T02:12:54.062Z,11.37
2018-05-14T02:15:22.896Z,11.67
2018-05-14T02:17:51.732Z,13.47
2018-05-14T02:20:20.594Z,13.23
2018-05-14T02:22:49.418Z,11.00
2018-05-14T02:25:18.299Z,11.70
2018-05-14T02:27:47.119Z,8.20
2018-05-14T02:30:15.910Z,7.90
2018-05-14T02:32:44.717Z,8.10
2018-05-14T02:35:13.551Z,5.93
2018-05-14T02:37:42.338Z,6.03
2018-05-14T02:40:11.136Z,6.43
2018-05-14T02:42:40.642Z,7.33
2018-05-14T02:45:09.420Z,7.67
2018-05-14T02:47:38.213Z,7.77
2018-05-14T02:50:07.213Z,7.07
2018-05-14T02:52:36.109Z,8.17
2018-05-14T02:55:05.006Z,7.83
2018-05-14T02:57:34.299Z,8.37
2018-05-14T03:00:03.176Z,8.17
2018-05-14T03:02:31.949Z,8.93
2018-05-14T03:05:01.035Z,8.83
2018-05-14T03:07:31.065Z,10.30
2018-05-14T03:10:00.806Z,10.60
2018-05-14T03:12:29.607Z,11.30
2018-05-14T03:14:58.399Z,13.80
2018-05-14T03:17:27.554Z,12.73
2018-05-14T03:19:56.362Z,12.73
2018-05-14T03:22:25.167Z,12.53
2018-05-14T03:24:54.671Z,12.83
2018-05-14T03:27:23.501Z,13.00
2018-05-14T03:29:52.962Z,13.23
2018-05-14T03:32:21.949Z,17.17
2018-05-14T03:34:50.785Z,14.40
2018-05-14T03:37:19.599Z,16.27
2018-05-14T03:39:48.482Z,16.40
2018-05-14T03:42:17.834Z,16.00
2018-05-14T03:44:46.637Z,16.43
2018-05-14T03:47:15.446Z,16.33
2018-05-14T03:49:44.504Z,17.27
2018-05-14T03:52:13.300Z,17.93
2018-05-14T03:54:42.096Z,14.27
2018-05-14T03:57:11.214Z,14.23
2018-05-14T03:59:45.994Z,16.67
2018-05-14T04:02:21.518Z,19.57
2018-05-14T04:04:56.277Z,18.17
2018-05-14T04:07:27.931Z,20.67
2018-05-14T04:09:56.786Z,19.83
2018-05-14T04:12:25.621Z,21.03
2018-05-14T04:14:54.648Z,18.60
2018-05-14T04:17:23.500Z,20.13
2018-05-14T04:19:52.386Z,19.40
2018-05-14T04:22:21.575Z,22.47
2018-05-14T04:24:50.375Z,21.40
2018-05-14T04:27:19.166Z,20.67
2018-05-14T04:29:48.004Z,21.93
2018-05-14T04:32:16.886Z,20.83
2018-05-14T04:34:45.795Z,22.00
2018-05-14T04:37:14.649Z,26.10
2018-05-14T04:39:43.452Z,20.40
2018-05-14T04:42:12.746Z,22.30
2018-05-14T04:44:41.585Z,24.93
2018-05-14T04:47:10.375Z,20.83
2018-05-14T04:49:39.295Z,22.70
2018-05-14T04:52:08.089Z,23.97
2018-05-14T04:54:36.987Z,27.37
2018-05-14T04:57:05.805Z,23.53
2018-05-14T04:59:35.182Z,24.63
2018-05-14T05:02:04.019Z,25.20
2018-05-14T05:04:32.881Z,25.80
2018-05-14T05:07:01.745Z,25.07
2018-05-14T05:09:31.630Z,25.73
2018-05-14T05:12:00.482Z,25.90
2018-05-14T05:14:29.281Z,24.67
2018-05-14T05:16:58.092Z,27.20
2018-05-14T05:19:27.025Z,26.07
2018-05-14T05:21:55.828Z,27.53
2018-05-14T05:24:24.673Z,26.00
2018-05-14T05:26:55.061Z,28.27
2018-05-14T05:29:23.911Z,26.90
2018-05-14T05:31:52.846Z,29.53
2018-05-14T05:34:21.998Z,26.20
2018-05-14T05:36:50.824Z,25.37
2018-05-14T05:39:19.630Z,24.60
2018-05-14T05:41:48.515Z,27.50
2018-05-14T05:44:17.354Z,32.97
2018-05-14T05:46:46.146Z,27.90
2018-05-14T05:49:15.113Z,26.20
2018-05-14T05:51:43.915Z,22.20
2018-05-14T05:54:12.732Z,21.47
2018-05-14T05:56:41.556Z,23.27
2018-05-14T05:59:10.378Z,24.90
2018-05-14T06:01:39.896Z,27.10
2018-05-14T06:04:08.848Z,27.93
2018-05-14T06:06:37.644Z,26.20
2018-05-14T06:09:08.222Z,26.47
2018-05-14T06:11:37.401Z,30.20
2018-05-14T06:14:06.210Z,24.90
2018-05-14T06:16:35.298Z,27.63
2018-05-14T06:19:04.242Z,27.83
2018-05-14T06:21:33.046Z,25.87
2018-05-14T06:24:02.186Z,24.87
2018-05-14T06:26:30.983Z,24.50
2018-05-14T06:28:59.867Z,24.13
2018-05-14T06:31:29.767Z,29.00
2018-05-14T06:33:58.666Z,23.33
2018-05-14T06:36:27.554Z,28.57
2018-05-14T06:38:56.376Z,27.43
2018-05-14T06:41:25.234Z,28.33
2018-05-14T06:43:54.325Z,28.40
2018-05-14T06:46:23.137Z,31.07
2018-05-14T06:48:51.913Z,29.10
2018-05-14T06:51:22.183Z,29.00
2018-05-14T06:53:50.965Z,27.17
2018-05-14T06:56:19.760Z,29.03
2018-05-14T06:58:48.900Z,27.23
2018-05-14T07:01:17.702Z,30.13
2018-05-14T07:03:46.587Z,26.90
2018-05-14T07:06:15.786Z,25.90
2018-05-14T07:11:20.018Z,25.57
2018-05-14T07:13:49.677Z,25.87
2018-05-14T07:16:18.517Z,25.53
2018-05-14T07:18:47.313Z,24.63
2018-05-14T07:21:16.295Z,26.10
2018-05-14T07:23:45.086Z,25.67
2018-05-14T07:26:13.887Z,26.93
2018-05-14T07:28:43.383Z,26.17
2018-05-14T07:31:12.272Z,25.07
2018-05-14T07:33:41.066Z,26.00
2018-05-14T07:36:10.119Z,30.80
2018-05-14T07:38:38.838Z,26.07
2018-05-14T07:41:07.695Z,26.60
2018-05-14T07:43:36.482Z,26.03
2018-05-14T07:46:05.670Z,25.47
2018-05-14T07:48:34.519Z,27.43
2018-05-14T07:51:03.327Z,26.40
2018-05-14T07:53:32.403Z,27.27
2018-05-14T07:56:01.200Z,27.70
2018-05-14T07:58:30.091Z,27.67
2018-05-14T08:00:58.970Z,26.63
2018-05-14T08:03:27.854Z,26.60
2018-05-14T08:05:56.678Z,26.63
2018-05-14T08:08:27.997Z,21.90
2018-05-14T08:10:57.189Z,24.37
2018-05-14T08:13:25.790Z,22.27
2018-05-14T08:15:54.672Z,22.93
2018-05-14T08:18:23.522Z,23.20
2018-05-14T08:20:52.327Z,22.00
2018-05-14T08:23:21.139Z,21.40
2018-05-14T08:25:50.742Z,22.30
2018-05-14T08:28:19.549Z,23.07
2018-05-14T08:30:48.426Z,21.97
2018-05-14T08:33:17.322Z,23.30
2018-05-14T08:35:46.213Z,21.80
2018-05-14T08:38:15.101Z,21.70
2018-05-14T08:40:44.307Z,21.03
2018-05-14T08:43:13.102Z,19.90
2018-05-14T08:45:41.898Z,20.10
2018-05-14T08:48:11.178Z,20.37
2018-05-14T08:50:40.071Z,20.30
2018-05-14T08:53:08.877Z,21.23
2018-05-14T08:55:37.847Z,20.80
2018-05-14T08:58:06.646Z,20.97
2018-05-14T09:00:35.446Z,21.63
2018-05-14T09:03:04.930Z,22.73
2018-05-14T09:05:33.721Z,21.30
2018-05-14T09:08:04.358Z,20.80
2018-05-14T09:10:33.243Z,21.67
2018-05-14T09:13:02.047Z,22.70
2018-05-14T09:15:31.034Z,22.07
2018-05-14T09:17:59.917Z,23.03
2018-05-14T09:20:28.725Z,22.97
2018-05-14T09:22:57.902Z,21.13
2018-05-14T09:25:26.700Z,21.20
2018-05-14T09:27:55.498Z,23.03
2018-05-14T09:30:24.802Z,22.70
2018-05-14T09:32:53.604Z,23.13
2018-05-14T09:35:22.408Z,23.93
2018-05-14T09:37:51.514Z,23.57
2018-05-14T09:40:20.351Z,22.57
2018-05-14T09:42:49.150Z,24.13
2018-05-14T09:45:18.749Z,23.53
2018-05-14T09:47:47.638Z,24.40
2018-05-14T09:50:16.542Z,21.23
2018-05-14T09:52:45.637Z,23.43
2018-05-14T09:55:14.441Z,21.63
2018-05-14T09:57:43.314Z,23.27
2018-05-14T10:00:12.458Z,23.43
2018-05-14T10:02:41.257Z,21.83
2018-05-14T10:05:10.059Z,19.43
2018-05-14T10:07:41.750Z,21.27
2018-05-14T10:10:10.551Z,20.27
2018-05-14T10:12:39.342Z,19.77
2018-05-14T10:15:08.421Z,19.43
2018-05-14T10:17:37.214Z,20.33
2018-05-14T10:20:06.023Z,18.80
2018-05-14T10:22:34.879Z,19.67
2018-05-14T10:25:03.681Z,19.50
2018-05-14T10:27:32.866Z,18.58
2018-05-14T10:30:01.671Z,19.02
2018-05-14T10:32:30.549Z,17.45
2018-05-14T10:34:59.646Z,17.73
2018-05-14T10:37:28.531Z,18.48
2018-05-14T10:39:57.347Z,19.25
2018-05-14T10:42:26.630Z,18.98
2018-05-14T10:44:55.509Z,17.58
2018-05-14T10:47:24.507Z,17.17
2018-05-14T10:49:53.302Z,17.98
2018-05-14T10:52:22.103Z,16.10
2018-05-14T10:54:50.982Z,16.20
2018-05-14T10:57:19.789Z,14.60
2018-05-14T10:59:49.687Z,15.02
2018-05-14T11:02:18.490Z,13.55
2018-05-14T11:04:47.331Z,14.07
2018-05-14T11:07:16.562Z,13.95
2018-05-14T11:09:47.197Z,13.40
2018-05-14T11:12:15.999Z,13.98
2018-05-14T11:14:45.078Z,13.25
2018-05-14T11:17:13.985Z,13.38
2018-05-14T11:19:42.857Z,12.45
2018-05-14T11:22:11.753Z,12.75
2018-05-14T11:24:40.641Z,13.70
2018-05-14T11:27:10.458Z,13.27
2018-05-14T11:29:39.352Z,14.07
2018-05-14T11:32:08.245Z,14.80
2018-05-14T11:34:37.438Z,14.70
2018-05-14T11:37:06.237Z,15.75
2018-05-14T11:39:35.038Z,16.37
2018-05-14T11:42:03.902Z,14.77
2018-05-14T11:44:32.799Z,14.60
2018-05-14T11:47:01.856Z,14.02
2018-05-14T11:49:30.683Z,14.80
2018-05-14T11:51:59.485Z,14.65
2018-05-14T11:54:28.454Z,14.73
2018-05-14T11:56:57.355Z,14.10
2018-05-14T11:59:26.238Z,15.63
2018-05-14T12:01:55.241Z,14.77
2018-05-14T12:04:24.049Z,16.05
2018-05-14T12:06:52.890Z,15.93
2018-05-14T12:09:23.444Z,16.00
2018-05-14T12:11:52.387Z,16.05
2018-05-14T12:14:21.334Z,16.60
2018-05-14T12:16:50.145Z,15.93
2018-05-14T12:19:18.954Z,15.05
2018-05-14T12:21:48.003Z,16.10
2018-05-14T12:24:16.797Z,16.58
2018-05-14T12:26:45.634Z,14.80
2018-05-14T12:29:15.110Z,16.75
2018-05-14T12:31:43.906Z,15.15
2018-05-14T12:34:12.766Z,16.92
2018-05-14T12:36:41.659Z,17.27
2018-05-14T12:39:10.551Z,15.90
2018-05-14T12:41:39.351Z,15.75
2018-05-14T12:44:08.214Z,16.27
2018-05-14T12:46:37.117Z,16.20
2018-05-14T12:49:05.943Z,14.63
2018-05-14T12:51:35.113Z,15.20
2018-05-14T12:54:04.006Z,15.65
2018-05-14T12:56:32.895Z,14.65
2018-05-14T12:59:01.728Z,13.40
2018-05-14T13:01:30.597Z,13.98
2018-05-14T13:03:59.825Z,13.23
2018-05-14T13:06:28.620Z,11.27
2018-05-14T13:08:59.091Z,10.40
2018-05-14T13:11:28.178Z,11.02
2018-05-14T13:13:56.979Z,10.63
2018-05-14T13:16:25.884Z,10.63
2018-05-14T13:18:54.731Z,10.25
2018-05-14T13:21:23.521Z,9.40
2018-05-14T13:23:52.758Z,9.35
2018-05-14T13:26:21.613Z,9.18
2018-05-14T13:28:50.355Z,8.70
2018-05-14T13:31:19.721Z,8.40
2018-05-14T13:33:49.535Z,8.82
2018-05-14T13:36:18.359Z,7.25
2018-05-14T13:38:47.429Z,7.37
2018-05-14T13:41:16.324Z,7.68
2018-05-14T13:43:45.114Z,6.97
2018-05-14T13:46:14.298Z,6.95
2018-05-14T13:48:43.101Z,7.43
2018-05-14T13:51:11.890Z,8.00
2018-05-14T13:53:40.774Z,7.78
2018-05-14T13:56:09.569Z,6.57
2018-05-14T13:58:42.458Z,6.60
2018-05-14T14:01:11.266Z,6.80
2018-05-14T14:03:40.331Z,6.50
2018-05-14T14:06:09.142Z,7.50
2018-05-14T14:08:39.510Z,6.87
2018-05-14T14:11:08.322Z,7.10
2018-05-14T14:13:37.134Z,6.75
2018-05-14T14:16:06.002Z,6.78
2018-05-14T14:18:34.793Z,7.62
2018-05-14T14:21:03.595Z,7.68
2018-05-14T14:23:32.728Z,6.50
2018-05-14T14:26:01.375Z,6.62
2018-05-14T14:28:30.266Z,6.80
2018-05-14T14:30:59.362Z,6.10
2018-05-14T14:33:28.158Z,6.40
2018-05-14T14:35:57.031Z,6.78
2018-05-14T14:38:25.783Z,6.65
2018-05-14T14:40:54.617Z,7.07
2018-05-14T14:43:23.491Z,7.25
2018-05-14T14:45:52.306Z,6.50
2018-05-14T14:48:21.081Z,6.53
2018-05-14T14:50:49.921Z,6.53
2018-05-14T14:53:18.778Z,7.55
2018-05-14T14:55:47.762Z,6.97
2018-05-14T14:58:16.570Z,7.30
2018-05-14T15:00:45.370Z,7.55
2018-05-14T15:03:14.341Z,6.97
2018-05-14T15:05:43.138Z,7.62
2018-05-14T15:08:13.591Z,6.75
2018-05-14T15:10:42.426Z,6.43
2018-05-14T15:13:11.223Z,6.00
2018-05-14T15:15:40.335Z,6.05
2018-05-14T15:18:09.218Z,6.57
2018-05-14T15:20:37.931Z,6.62
2018-05-14T15:23:07.098Z,6.43
2018-05-14T15:25:35.898Z,6.40
2018-05-14T15:28:04.691Z,6.95
2018-05-14T15:30:33.693Z,6.47
2018-05-14T15:33:02.493Z,6.18
2018-05-14T15:35:31.309Z,6.03
2018-05-14T15:38:00.149Z,6.25
2018-05-14T15:40:28.941Z,6.72
2018-05-14T15:42:57.805Z,6.85
2018-05-14T15:45:26.611Z,6.72
2018-05-14T15:47:55.514Z,6.75
2018-05-14T15:50:25.230Z,6.55
2018-05-14T15:52:54.018Z,6.90
2018-05-14T15:55:22.809Z,6.22
2018-05-14T15:57:51.639Z,6.93
2018-05-14T16:00:20.435Z,6.90
2018-05-14T16:02:50.286Z,6.93
2018-05-14T16:05:19.089Z,6.87
2018-05-14T16:07:52.569Z,7.80
2018-05-14T16:10:21.459Z,6.95
2018-05-14T16:12:50.266Z,8.60
2018-05-14T16:15:19.071Z,8.63
2018-05-14T16:17:48.074Z,9.18
2018-05-14T16:20:16.944Z,10.20
2018-05-14T16:22:45.733Z,9.38
2018-05-14T16:25:15.117Z,10.32
2018-05-14T16:27:43.934Z,9.45
2018-05-14T16:30:12.728Z,10.50
2018-05-14T16:32:41.582Z,9.98
2018-05-14T16:35:10.480Z,10.90
2018-05-14T16:37:40.513Z,10.02
2018-05-14T16:40:09.316Z,10.63
2018-05-14T16:42:38.176Z,9.63
2018-05-14T16:45:07.018Z,10.40
2018-05-14T16:47:35.858Z,10.30
2018-05-14T16:50:04.680Z,10.30
2018-05-14T16:52:33.513Z,9.60
2018-05-14T16:55:02.358Z,10.82
2018-05-14T16:57:31.146Z,9.55
2018-05-14T17:00:00.587Z,10.07
2018-05-14T17:02:29.425Z,9.80
2018-05-14T17:04:58.239Z,9.73
2018-05-14T17:07:27.189Z,10.18
2018-05-14T17:09:57.705Z,11.27
2018-05-14T17:12:26.498Z,10.38
2018-05-14T17:14:55.511Z,10.60
2018-05-14T17:17:24.389Z,11.68
2018-05-14T17:19:53.367Z,10.77
2018-05-14T17:22:22.689Z,10.65
2018-05-14T17:24:51.508Z,11.40
2018-05-14T17:27:20.322Z,11.50
2018-05-14T17:29:49.232Z,11.10
2018-05-14T17:32:18.044Z,10.73
2018-05-14T17:34:46.868Z,11.23
2018-05-14T17:37:16.348Z,12.18
2018-05-14T17:39:45.179Z,11.50
2018-05-14T17:42:14.038Z,12.25
2018-05-14T17:44:43.452Z,11.98
2018-05-14T17:47:12.275Z,12.00
2018-05-14T17:49:41.245Z,15.02
2018-05-14T17:52:10.069Z,15.88
2018-05-14T17:54:38.918Z,14.25
2018-05-14T17:57:07.772Z,12.70
2018-05-14T17:59:36.569Z,7.60
2018-05-14T18:02:05.367Z,7.28
2018-05-14T18:04:34.359Z,6.47
2018-05-14T18:07:03.246Z,5.95
2018-05-14T18:09:33.460Z,5.40
2018-05-14T18:12:02.422Z,5.40
2018-05-14T18:14:31.274Z,6.30
2018-05-14T18:17:00.133Z,6.15
2018-05-14T18:19:43.842Z,7.37
2018-05-14T18:22:12.835Z,5.85
2018-05-14T18:24:55.088Z,5.35
2018-05-14T18:27:29.778Z,6.97
2018-05-14T18:30:13.732Z,6.87
2018-05-14T18:32:59.369Z,7.32
2018-05-14T18:35:43.078Z,8.70
2018-05-14T18:38:11.979Z,8.25
2018-05-14T18:40:40.794Z,8.30
2018-05-14T18:43:09.620Z,8.25
2018-05-14T18:45:38.419Z,8.90
2018-05-14T18:48:07.226Z,9.03
2018-05-14T18:50:36.414Z,8.60
2018-05-14T18:53:06.063Z,8.40
2018-05-14T18:55:34.932Z,7.80
2018-05-14T18:58:04.323Z,8.33
2018-05-14T19:00:33.211Z,8.50
2018-05-14T19:03:02.031Z,7.80
2018-05-14T19:05:30.892Z,12.07
2018-05-14T19:08:01.849Z,11.07
2018-05-14T19:10:36.661Z,11.50
2018-05-14T19:13:05.555Z,10.40
2018-05-14T19:15:40.706Z,10.90
2018-05-14T19:18:09.542Z,12.80
2018-05-14T19:20:38.380Z,11.63
2018-05-14T19:23:15.157Z,12.47
2018-05-14T19:25:43.967Z,10.70
2018-05-14T19:28:18.616Z,14.23
2018-05-14T19:30:47.360Z,15.63
2018-05-14T19:33:21.912Z,11.63
2018-05-14T19:35:56.496Z,11.87
2018-05-14T19:38:26.114Z,13.83
2018-05-14T19:40:54.913Z,11.70
2018-05-14T19:43:23.724Z,12.70
2018-05-14T19:45:52.576Z,9.23
2018-05-14T19:48:21.382Z,10.70
2018-05-14T19:50:50.243Z,10.90
2018-05-14T19:53:19.362Z,12.60
2018-05-14T19:55:48.258Z,12.20
2018-05-14T19:58:17.073Z,18.17
2018-05-14T20:00:46.177Z,12.30
2018-05-14T20:03:14.986Z,12.43
2018-05-14T20:05:43.810Z,12.27
2018-05-14T20:08:14.118Z,12.07
2018-05-14T20:10:42.931Z,14.13
2018-05-14T20:13:11.728Z,14.13
2018-05-14T20:15:41.324Z,13.40
2018-05-14T20:18:10.140Z,11.63
2018-05-14T20:20:39.181Z,14.20
2018-05-14T20:23:08.103Z,14.53
2018-05-14T20:25:36.991Z,11.67
2018-05-14T20:28:06.291Z,13.13
2018-05-14T20:30:35.178Z,11.43
2018-05-14T20:33:03.989Z,12.37
2018-05-14T20:35:32.817Z,13.03
2018-05-14T20:38:01.625Z,14.17
2018-05-14T20:40:30.518Z,15.90
2018-05-14T20:42:59.517Z,12.40
2018-05-14T20:45:28.335Z,12.83
2018-05-14T20:47:57.183Z,18.03
2018-05-14T20:50:25.984Z,16.70
2018-05-14T20:52:54.892Z,16.50
2018-05-14T20:55:23.797Z,19.00
2018-05-14T20:57:52.598Z,12.90
2018-05-14T21:00:21.463Z,17.20
2018-05-14T21:02:50.977Z,15.13
2018-05-14T21:05:19.779Z,12.93
2018-05-14T21:08:00.681Z,13.93
2018-05-14T21:10:29.471Z,16.60
2018-05-14T21:12:58.280Z,14.37
2018-05-14T21:15:27.091Z,19.80
2018-05-14T21:17:55.895Z,18.70
2018-05-14T21:20:24.775Z,17.40
2018-05-14T21:22:54.095Z,17.60
2018-05-14T21:25:22.990Z,15.03
2018-05-14T21:27:51.831Z,15.47
2018-05-14T21:30:20.636Z,16.70
2018-05-14T21:32:49.462Z,14.63
2018-05-14T21:35:18.739Z,14.60
2018-05-14T21:37:47.544Z,13.30
2018-05-14T21:40:16.347Z,23.03
2018-05-14T21:42:45.939Z,16.47
2018-05-14T21:45:14.742Z,18.20
2018-05-14T21:47:43.540Z,15.70
2018-05-14T21:50:13.110Z,16.17
2018-05-14T21:52:41.903Z,15.07
2018-05-14T21:55:10.710Z,18.70
2018-05-14T21:57:39.691Z,18.13
2018-05-14T22:00:08.487Z,15.70
2018-05-14T22:02:37.303Z,19.27
2018-05-14T22:05:06.317Z,18.13
2018-05-14T22:07:45.819Z,16.93
2018-05-14T22:10:14.982Z,15.00
2018-05-14T22:12:43.883Z,12.70
2018-05-14T22:15:12.709Z,13.17
2018-05-14T22:17:41.593Z,18.43
2018-05-14T22:20:10.385Z,18.30
2018-05-14T22:22:39.269Z,17.90
2018-05-14T22:25:10.174Z,20.93
2018-05-14T22:27:39.074Z,22.80
2018-05-14T22:30:07.895Z,21.77
2018-05-14T22:32:37.007Z,15.20
2018-05-14T22:35:05.802Z,10.63
2018-05-14T22:37:34.655Z,17.07
2018-05-14T22:40:03.539Z,13.30
2018-05-14T22:42:32.338Z,13.13
2018-05-14T22:45:01.138Z,13.47
2018-05-14T22:47:29.971Z,14.80
2018-05-14T22:49:58.765Z,19.23
2018-05-14T22:52:27.981Z,18.60
2018-05-14T22:54:56.894Z,19.13
2018-05-14T22:57:25.787Z,25.23
2018-05-14T22:59:54.669Z,37.90
2018-05-14T23:02:23.550Z,56.83
2018-05-14T23:04:53.270Z,36.93
2018-05-14T23:07:22.066Z,58.47
2018-05-14T23:09:52.000Z,41.63
2018-05-14T23:12:21.020Z,34.53
2018-05-14T23:14:49.806Z,40.17
2018-05-14T23:17:18.715Z,40.60
2018-05-14T23:19:47.746Z,34.80
2018-05-14T23:22:16.629Z,48.37
2018-05-14T23:24:45.435Z,55.03
2018-05-14T23:27:16.047Z,37.50
2018-05-14T23:29:44.863Z,44.10
2018-05-14T23:32:13.665Z,34.63
2018-05-14T23:34:43.333Z,45.60
2018-05-14T23:37:12.220Z,33.17
2018-05-14T23:39:41.077Z,32.90
2018-05-14T23:42:09.995Z,44.00
2018-05-14T23:44:38.805Z,41.57
2018-05-14T23:47:07.689Z,57.13
2018-05-14T23:49:37.389Z,44.37
2018-05-14T23:52:06.198Z,74.23
2018-05-14T23:54:34.990Z,59.57
2018-05-14T23:57:03.865Z,60.70
2018-05-14T23:59:32.656Z,74.80
